createdAt,value
2023-02-24T00:00:34.189Z,27.53
2023-02-24T00:03:06.114Z,23.70
2023-02-24T00:05:34.539Z,23.17
2023-02-24T00:08:01.135Z,24.33
2023-02-24T00:10:27.914Z,22.93
2023-02-24T00:12:54.509Z,27.47
2023-02-24T00:15:20.977Z,26.13
2023-02-24T00:17:47.437Z,35.80
2023-02-24T00:20:21.721Z,23.67
2023-02-24T00:22:48.302Z,22.67
2023-02-24T00:25:14.901Z,20.77
2023-02-24T00:27:42.602Z,20.47
2023-02-24T00:30:11.670Z,23.13
2023-02-24T00:32:38.648Z,18.13
2023-02-24T00:35:05.837Z,21.70
2023-02-24T00:37:33.294Z,19.57
2023-02-24T00:39:59.909Z,26.60
2023-02-24T00:42:26.404Z,26.83
2023-02-24T00:44:54.284Z,26.17
2023-02-24T00:47:22.594Z,25.83
2023-02-24T00:49:50.222Z,24.20
2023-02-24T00:52:20.943Z,22.30
2023-02-24T00:54:49.094Z,22.20
2023-02-24T00:57:18.332Z,24.63
2023-02-24T00:59:47.864Z,23.83
2023-02-24T01:02:15.025Z,23.10
2023-02-24T01:04:41.632Z,23.87
2023-02-24T01:07:11.139Z,30.77
2023-02-24T01:09:40.357Z,22.17
2023-02-24T01:12:27.678Z,25.03
2023-02-24T01:14:54.258Z,21.97
2023-02-24T01:17:22.354Z,29.30
2023-02-24T01:19:50.019Z,21.63
2023-02-24T01:22:18.134Z,17.67
2023-02-24T01:24:45.063Z,21.07
2023-02-24T01:27:18.725Z,20.87
2023-02-24T01:29:46.993Z,26.30
2023-02-24T01:32:17.389Z,24.77
2023-02-24T01:34:44.965Z,21.50
2023-02-24T01:37:16.758Z,20.60
2023-02-24T01:39:44.571Z,25.27
2023-02-24T01:42:16.819Z,22.37
2023-02-24T01:44:43.775Z,20.00
2023-02-24T01:47:10.988Z,22.30
2023-02-24T01:49:42.872Z,21.87
2023-02-24T01:52:19.293Z,18.97
2023-02-24T01:54:59.829Z,22.53
2023-02-24T01:57:30.065Z,23.27
2023-02-24T02:00:02.326Z,30.03
2023-02-24T02:02:29.230Z,23.23
2023-02-24T02:04:58.625Z,19.77
2023-02-24T02:07:27.909Z,27.43
2023-02-24T02:09:55.154Z,18.90
2023-02-24T02:12:23.213Z,21.87
2023-02-24T02:14:52.438Z,19.60
2023-02-24T02:17:43.663Z,21.10
2023-02-24T02:20:33.698Z,17.50
2023-02-24T02:23:38.803Z,26.30
2023-02-24T02:26:35.861Z,23.33
2023-02-24T02:29:25.430Z,25.10
2023-02-24T02:32:12.987Z,21.63
2023-02-24T02:34:45.725Z,23.90
2023-02-24T02:37:15.484Z,21.07
2023-02-24T02:39:50.942Z,21.80
2023-02-24T02:42:30.331Z,21.37
2023-02-24T02:45:05.297Z,22.10
2023-02-24T02:47:47.996Z,28.57
2023-02-24T02:50:19.428Z,22.23
2023-02-24T02:52:56.714Z,21.63
2023-02-24T02:55:47.030Z,24.40
2023-02-24T02:58:17.054Z,24.17
2023-02-24T03:00:59.252Z,20.40
2023-02-24T03:03:29.071Z,21.97
2023-02-24T03:06:04.198Z,19.47
2023-02-24T03:08:34.377Z,16.43
2023-02-24T03:11:02.378Z,15.80
2023-02-24T03:13:32.025Z,17.53
2023-02-24T03:16:03.662Z,18.30
2023-02-24T03:18:32.856Z,18.90
2023-02-24T03:21:07.708Z,17.93
2023-02-24T03:23:38.370Z,18.70
2023-02-24T03:26:10.636Z,18.73
2023-02-24T03:28:39.749Z,18.77
2023-02-24T03:31:23.902Z,16.87
2023-02-24T03:34:03.904Z,20.80
2023-02-24T03:36:31.021Z,20.47
2023-02-24T03:38:58.788Z,19.90
2023-02-24T03:41:30.689Z,19.43
2023-02-24T03:43:58.185Z,19.53
2023-02-24T03:46:24.935Z,19.73
2023-02-24T03:49:00.187Z,22.80
2023-02-24T03:51:27.773Z,23.70
2023-02-24T03:54:30.792Z,22.00
2023-02-24T03:57:05.789Z,20.17
2023-02-24T03:59:48.536Z,18.90
2023-02-24T04:02:21.750Z,19.47
2023-02-24T04:05:05.812Z,17.93
2023-02-24T04:07:52.375Z,16.33
2023-02-24T04:10:41.926Z,14.37
2023-02-24T04:13:19.834Z,19.57
2023-02-24T04:15:59.004Z,17.20
2023-02-24T04:18:29.798Z,18.43
2023-02-24T04:20:59.725Z,19.33
2023-02-24T04:23:31.752Z,22.73
2023-02-24T04:25:58.478Z,19.13
2023-02-24T04:28:26.035Z,18.80
2023-02-24T04:30:58.637Z,18.43
2023-02-24T04:33:25.866Z,17.23
2023-02-24T04:35:53.437Z,23.30
2023-02-24T04:38:20.277Z,20.60
2023-02-24T04:40:46.930Z,18.50
2023-02-24T04:43:13.544Z,18.00
2023-02-24T04:45:40.462Z,17.67
2023-02-24T04:48:12.798Z,21.40
2023-02-24T04:50:42.450Z,23.87
2023-02-24T04:53:12.193Z,20.73
2023-02-24T04:55:41.262Z,15.53
2023-02-24T04:58:11.819Z,22.17
2023-02-24T05:00:41.654Z,24.30
2023-02-24T05:03:14.317Z,18.10
2023-02-24T05:05:43.016Z,34.33
2023-02-24T05:08:10.897Z,20.47
2023-02-24T05:10:43.891Z,24.70
2023-02-24T05:13:25.462Z,20.67
2023-02-24T05:15:51.984Z,19.43
2023-02-24T05:18:19.097Z,19.67
2023-02-24T05:21:09.567Z,18.53
2023-02-24T05:23:44.433Z,28.03
2023-02-24T05:26:16.050Z,25.90
2023-02-24T05:28:44.258Z,23.03
2023-02-24T05:31:17.595Z,24.87
2023-02-24T05:33:46.255Z,22.53
2023-02-24T05:36:17.232Z,19.03
2023-02-24T05:38:48.752Z,31.47
2023-02-24T05:41:17.600Z,22.57
2023-02-24T05:43:53.150Z,19.33
2023-02-24T05:46:28.392Z,16.97
2023-02-24T05:49:00.692Z,21.93
2023-02-24T05:51:36.096Z,18.47
2023-02-24T05:54:05.195Z,17.57
2023-02-24T05:56:33.020Z,17.33
2023-02-24T05:59:04.621Z,23.07
2023-02-24T06:01:36.157Z,14.37
2023-02-24T06:04:07.516Z,39.30
2023-02-24T06:06:41.761Z,21.33
2023-02-24T06:09:12.808Z,19.80
2023-02-24T06:11:43.247Z,20.93
2023-02-24T06:14:11.229Z,21.53
2023-02-24T06:16:43.447Z,20.13
2023-02-24T06:19:12.071Z,28.40
2023-02-24T06:21:44.063Z,20.93
2023-02-24T06:24:16.114Z,19.60
2023-02-24T06:26:46.018Z,25.17
2023-02-24T06:29:14.849Z,21.13
2023-02-24T06:31:42.906Z,17.20
2023-02-24T06:34:11.336Z,21.87
2023-02-24T06:36:38.126Z,21.10
2023-02-24T06:39:08.290Z,17.07
2023-02-24T06:41:38.129Z,18.37
2023-02-24T06:44:04.755Z,18.40
2023-02-24T06:46:31.333Z,19.87
2023-02-24T06:49:01.011Z,14.40
2023-02-24T06:51:30.773Z,15.20
2023-02-24T06:53:57.873Z,17.50
2023-02-24T06:56:24.640Z,17.20
2023-02-24T06:58:52.857Z,16.13
2023-02-24T07:01:22.309Z,15.70
2023-02-24T07:04:07.279Z,18.43
2023-02-24T07:06:35.859Z,18.40
2023-02-24T07:09:07.247Z,19.63
2023-02-24T07:11:35.278Z,21.30
2023-02-24T07:14:02.418Z,15.40
2023-02-24T07:16:29.353Z,20.27
2023-02-24T07:18:58.416Z,19.07
2023-02-24T07:21:26.569Z,15.30
2023-02-24T07:23:58.864Z,20.50
2023-02-24T07:26:27.882Z,16.50
2023-02-24T07:28:55.227Z,21.70
2023-02-24T07:31:24.702Z,17.67
2023-02-24T07:33:57.213Z,19.53
2023-02-24T07:36:24.798Z,15.20
2023-02-24T07:38:53.024Z,21.40
2023-02-24T07:41:23.044Z,17.73
2023-02-24T07:43:51.759Z,22.90
2023-02-24T07:46:28.157Z,41.50
2023-02-24T07:48:55.867Z,18.93
2023-02-24T07:51:27.702Z,17.50
2023-02-24T07:53:57.095Z,15.13
2023-02-24T07:56:31.056Z,17.97
2023-02-24T07:59:00.599Z,16.00
2023-02-24T08:01:28.645Z,20.10
2023-02-24T08:03:57.645Z,23.30
2023-02-24T08:06:33.280Z,18.03
2023-02-24T08:09:00.514Z,16.30
2023-02-24T08:11:37.246Z,14.93
2023-02-24T08:14:13.959Z,18.30
2023-02-24T08:16:44.920Z,19.60
2023-02-24T08:19:20.882Z,21.03
2023-02-24T08:21:52.907Z,17.50
2023-02-24T08:24:25.321Z,21.33
2023-02-24T08:27:05.637Z,16.73
2023-02-24T08:29:58.047Z,19.17
2023-02-24T08:32:25.925Z,23.80
2023-02-24T08:34:56.789Z,18.67
2023-02-24T08:37:25.333Z,19.57
2023-02-24T08:39:54.079Z,14.27
2023-02-24T08:42:24.394Z,23.90
2023-02-24T08:44:53.910Z,17.03
2023-02-24T08:47:24.510Z,17.93
2023-02-24T08:49:53.878Z,19.57
2023-02-24T08:52:20.375Z,22.93
2023-02-24T08:54:49.344Z,16.93
2023-02-24T08:57:18.227Z,18.60
2023-02-24T08:59:50.135Z,20.10
2023-02-24T09:02:24.858Z,17.87
2023-02-24T09:05:13.180Z,16.77
2023-02-24T09:07:42.003Z,13.73
2023-02-24T09:10:17.793Z,16.03
2023-02-24T09:12:44.775Z,16.63
2023-02-24T09:15:15.659Z,17.33
2023-02-24T09:17:46.594Z,17.60
2023-02-24T09:20:25.956Z,17.93
2023-02-24T09:23:08.968Z,17.50
2023-02-24T09:25:41.145Z,19.00
2023-02-24T09:28:17.385Z,24.93
2023-02-24T09:30:55.979Z,17.70
2023-02-24T09:33:52.181Z,14.13
2023-02-24T09:36:20.860Z,14.20
2023-02-24T09:39:02.133Z,20.27
2023-02-24T09:41:32.605Z,15.90
2023-02-24T09:44:07.707Z,20.10
2023-02-24T09:46:39.431Z,17.43
2023-02-24T09:49:14.793Z,19.20
2023-02-24T09:51:44.057Z,17.23
2023-02-24T09:54:19.567Z,18.20
2023-02-24T09:57:08.711Z,16.70
2023-02-24T10:00:01.496Z,15.23
2023-02-24T10:02:44.768Z,12.73
2023-02-24T10:05:28.578Z,18.03
2023-02-24T10:07:57.249Z,18.03
2023-02-24T10:10:29.818Z,17.90
2023-02-24T10:13:17.526Z,13.17
2023-02-24T10:15:57.547Z,23.90
2023-02-24T10:18:33.333Z,19.73
2023-02-24T10:21:30.823Z,19.00
2023-02-24T10:24:23.271Z,16.00
2023-02-24T10:27:08.309Z,21.43
2023-02-24T10:29:43.294Z,16.03
2023-02-24T10:32:17.103Z,16.23
2023-02-24T10:34:44.687Z,16.93
2023-02-24T10:37:27.545Z,12.77
2023-02-24T10:40:09.866Z,15.63
2023-02-24T10:42:44.625Z,17.77
2023-02-24T10:45:20.069Z,26.07
2023-02-24T10:47:58.198Z,16.50
2023-02-24T10:50:31.731Z,15.87
2023-02-24T10:53:05.976Z,19.17
2023-02-24T10:55:45.727Z,13.10
2023-02-24T10:58:28.389Z,17.33
2023-02-24T11:01:18.637Z,18.43
2023-02-24T11:04:01.396Z,19.57
2023-02-24T11:06:40.537Z,21.77
2023-02-24T11:09:18.565Z,18.83
2023-02-24T11:12:07.140Z,15.30
2023-02-24T11:14:58.941Z,13.77
2023-02-24T11:17:27.672Z,16.40
2023-02-24T11:20:10.937Z,16.10
2023-02-24T11:22:42.284Z,24.57
2023-02-24T11:25:22.938Z,14.50
2023-02-24T11:27:49.527Z,17.90
2023-02-24T11:30:34.818Z,17.83
2023-02-24T11:33:20.400Z,17.37
2023-02-24T11:35:56.742Z,19.83
2023-02-24T11:38:32.613Z,15.37
2023-02-24T11:41:05.462Z,13.83
2023-02-24T11:43:34.974Z,17.67
2023-02-24T11:46:10.501Z,14.67
2023-02-24T11:48:52.552Z,16.63
2023-02-24T11:51:23.494Z,17.00
2023-02-24T11:54:06.794Z,15.70
2023-02-24T11:56:45.385Z,17.00
2023-02-24T11:59:23.046Z,18.00
2023-02-24T12:01:59.391Z,12.00
2023-02-24T12:04:40.763Z,15.10
2023-02-24T12:07:23.922Z,15.20
2023-02-24T12:10:15.580Z,22.33
2023-02-24T12:13:15.270Z,25.43
2023-02-24T12:15:46.822Z,15.43
2023-02-24T12:18:27.754Z,13.97
2023-02-24T12:21:00.920Z,14.93
2023-02-24T12:23:34.353Z,18.67
2023-02-24T12:26:14.281Z,21.70
2023-02-24T12:29:29.876Z,17.93
2023-02-24T12:32:08.080Z,14.07
2023-02-24T12:35:00.219Z,19.20
2023-02-24T12:37:48.621Z,19.23
2023-02-24T12:40:32.600Z,15.70
2023-02-24T12:43:24.073Z,18.83
2023-02-24T12:46:14.026Z,14.43
2023-02-24T12:49:18.033Z,24.47
2023-02-24T12:52:22.279Z,22.53
2023-02-24T12:54:58.134Z,21.00
2023-02-24T12:57:45.858Z,14.67
2023-02-24T13:00:30.794Z,14.40
2023-02-24T13:03:09.740Z,21.07
2023-02-24T13:05:47.958Z,21.33
2023-02-24T13:08:36.617Z,28.00
2023-02-24T13:11:14.346Z,24.27
2023-02-24T13:13:50.580Z,19.93
2023-02-24T13:16:27.773Z,15.67
2023-02-24T13:19:23.952Z,17.13
2023-02-24T13:22:11.548Z,20.40
2023-02-24T13:24:41.058Z,21.03
2023-02-24T13:27:21.593Z,19.63
2023-02-24T13:29:55.141Z,22.60
2023-02-24T13:32:36.669Z,22.40
2023-02-24T13:35:23.585Z,19.60
2023-02-24T13:37:50.666Z,24.03
2023-02-24T13:40:23.381Z,22.63
2023-02-24T13:42:57.854Z,20.33
2023-02-24T13:45:26.284Z,21.20
2023-02-24T13:48:11.517Z,19.90
2023-02-24T13:50:44.462Z,21.90
2023-02-24T13:53:50.404Z,19.33
2023-02-24T13:56:31.776Z,29.67
2023-02-24T13:59:26.402Z,23.53
2023-02-24T14:02:12.941Z,23.50
2023-02-24T14:04:49.505Z,28.17
2023-02-24T14:07:21.424Z,26.60
2023-02-24T14:09:52.330Z,23.77
2023-02-24T14:12:26.156Z,45.67
2023-02-24T14:14:53.427Z,26.33
2023-02-24T14:17:28.860Z,27.40
2023-02-24T14:20:19.537Z,22.73
2023-02-24T14:22:59.266Z,22.43
2023-02-24T14:25:36.349Z,35.67
2023-02-24T14:28:03.084Z,21.73
2023-02-24T14:30:38.757Z,23.87
2023-02-24T14:33:07.670Z,19.50
2023-02-24T14:35:39.099Z,20.60
2023-02-24T14:38:06.264Z,22.17
2023-02-24T14:40:33.694Z,26.90
2023-02-24T14:43:00.374Z,27.20
2023-02-24T14:45:28.717Z,38.80
2023-02-24T14:47:56.328Z,23.13
2023-02-24T14:50:29.820Z,25.97
2023-02-24T14:53:01.208Z,17.80
2023-02-24T14:55:40.437Z,22.70
2023-02-24T14:58:07.026Z,21.63
2023-02-24T15:00:36.982Z,24.37
2023-02-24T15:03:27.159Z,19.77
2023-02-24T15:05:56.011Z,21.40
2023-02-24T15:08:34.117Z,21.13
2023-02-24T15:11:00.986Z,23.00
2023-02-24T15:13:35.929Z,21.60
2023-02-24T15:16:14.709Z,22.67
2023-02-24T15:18:42.032Z,21.97
2023-02-24T15:21:20.065Z,19.80
2023-02-24T15:23:47.120Z,21.40
2023-02-24T15:26:28.301Z,22.87
2023-02-24T15:29:22.896Z,17.30
2023-02-24T15:31:51.545Z,30.63
2023-02-24T15:34:29.906Z,20.60
2023-02-24T15:37:00.149Z,19.73
2023-02-24T15:39:32.018Z,25.17
2023-02-24T15:42:09.482Z,24.27
2023-02-24T15:44:36.509Z,27.50
2023-02-24T15:47:21.175Z,25.67
2023-02-24T15:49:47.683Z,16.07
2023-02-24T15:52:14.642Z,23.77
2023-02-24T15:54:43.358Z,23.73
2023-02-24T15:57:10.685Z,16.23
2023-02-24T15:59:37.248Z,19.93
2023-02-24T16:02:05.922Z,31.00
2023-02-24T16:04:32.449Z,109.77
2023-02-24T16:06:59.087Z,110.80
2023-02-24T16:09:37.711Z,60.13
2023-02-24T16:12:10.928Z,37.20
2023-02-24T16:14:37.982Z,26.80
2023-02-24T16:17:08.870Z,21.90
2023-02-24T16:19:37.277Z,22.00
2023-02-24T16:22:03.778Z,24.20
2023-02-24T16:24:30.311Z,41.00
2023-02-24T16:26:56.879Z,34.07
2023-02-24T16:29:23.382Z,29.30
2023-02-24T16:31:50.153Z,34.23
2023-02-24T16:34:16.944Z,32.73
2023-02-24T16:36:43.883Z,39.50
2023-02-24T16:39:12.344Z,39.80
2023-02-24T16:41:38.961Z,38.47
2023-02-24T16:44:05.522Z,72.03
2023-02-24T16:46:39.991Z,53.00
2023-02-24T16:49:08.604Z,21.90
2023-02-24T16:51:35.569Z,45.90
2023-02-24T16:54:02.587Z,26.27
2023-02-24T16:56:29.126Z,31.30
2023-02-24T16:58:55.730Z,21.10
2023-02-24T17:01:22.357Z,24.23
2023-02-24T17:03:50.454Z,20.87
2023-02-24T17:06:17.031Z,21.50
2023-02-24T17:08:45.854Z,25.00
2023-02-24T17:11:20.620Z,23.17
2023-02-24T17:13:47.253Z,20.90
2023-02-24T17:16:13.874Z,19.43
2023-02-24T17:18:40.552Z,24.77
2023-02-24T17:21:07.153Z,26.63
2023-02-24T17:23:33.767Z,18.30
2023-02-24T17:26:01.835Z,20.30
2023-02-24T17:28:28.594Z,18.80
2023-02-24T17:30:55.236Z,20.20
2023-02-24T17:33:21.955Z,20.53
2023-02-24T17:35:48.646Z,27.30
2023-02-24T17:38:17.372Z,35.83
2023-02-24T17:40:44.968Z,31.93
2023-02-24T17:43:12.108Z,26.63
2023-02-24T17:45:43.151Z,27.50
2023-02-24T17:48:10.111Z,21.77
2023-02-24T17:50:36.837Z,20.77
2023-02-24T17:53:03.486Z,20.70
2023-02-24T17:55:30.077Z,21.53
2023-02-24T17:57:57.305Z,33.57
2023-02-24T18:00:23.902Z,23.87
2023-02-24T18:02:50.566Z,26.13
2023-02-24T18:05:17.173Z,20.17
2023-02-24T18:07:43.684Z,30.70
2023-02-24T18:10:11.259Z,32.33
2023-02-24T18:12:38.094Z,24.93
2023-02-24T18:15:09.115Z,23.60
2023-02-24T18:17:37.352Z,39.77
2023-02-24T18:20:05.318Z,26.93
2023-02-24T18:22:31.918Z,35.93
2023-02-24T18:24:59.412Z,55.13
2023-02-24T18:27:26.008Z,59.10
2023-02-24T18:29:53.752Z,50.60
2023-02-24T18:32:20.576Z,47.87
2023-02-24T18:34:47.223Z,38.33
2023-02-24T18:37:13.746Z,40.20
2023-02-24T18:39:40.291Z,36.47
2023-02-24T18:42:06.872Z,37.90
2023-02-24T18:44:33.364Z,32.10
2023-02-24T18:46:59.989Z,45.10
2023-02-24T18:49:26.581Z,39.53
2023-02-24T18:51:53.122Z,35.90
2023-02-24T18:54:20.273Z,32.73
2023-02-24T18:56:46.943Z,36.03
2023-02-24T18:59:13.408Z,45.00
2023-02-24T19:01:40.346Z,44.47
2023-02-24T19:04:08.122Z,34.40
2023-02-24T19:06:35.552Z,36.03
2023-02-24T19:09:09.769Z,42.37
2023-02-24T19:11:37.438Z,36.93
2023-02-24T19:14:04.437Z,45.93
2023-02-24T19:16:31.540Z,42.10
2023-02-24T19:18:59.979Z,36.00
2023-02-24T19:21:28.133Z,37.60
2023-02-24T19:23:54.925Z,32.80
2023-02-24T19:26:24.669Z,39.53
2023-02-24T19:28:51.604Z,39.90
2023-02-24T19:31:20.664Z,35.57
2023-02-24T19:33:54.522Z,44.13
2023-02-24T19:36:22.203Z,48.50
2023-02-24T19:38:49.076Z,34.10
2023-02-24T19:41:15.654Z,30.77
2023-02-24T19:43:42.136Z,39.33
2023-02-24T19:46:11.484Z,33.37
2023-02-24T19:48:38.890Z,39.90
2023-02-24T19:51:09.506Z,39.40
2023-02-24T19:53:36.070Z,28.70
2023-02-24T19:56:02.684Z,28.90
2023-02-24T19:58:29.311Z,29.47
2023-02-24T20:00:56.082Z,22.03
2023-02-24T20:03:22.632Z,29.57
2023-02-24T20:05:49.118Z,20.47
2023-02-24T20:08:15.857Z,24.93
2023-02-24T20:10:42.491Z,19.93
2023-02-24T20:13:09.065Z,23.33
2023-02-24T20:15:36.081Z,27.03
2023-02-24T20:18:04.728Z,22.67
2023-02-24T20:20:31.768Z,36.83
2023-02-24T20:22:58.544Z,27.70
2023-02-24T20:25:25.265Z,24.80
2023-02-24T20:27:51.843Z,25.00
2023-02-24T20:30:18.780Z,21.43
2023-02-24T20:32:45.496Z,22.40
2023-02-24T20:35:12.158Z,32.30
2023-02-24T20:37:38.825Z,23.90
2023-02-24T20:40:06.071Z,30.03
2023-02-24T20:42:32.852Z,24.80
2023-02-24T20:44:59.416Z,19.43
2023-02-24T20:47:26.085Z,25.47
2023-02-24T20:49:52.610Z,32.10
2023-02-24T20:52:19.175Z,27.57
2023-02-24T20:54:45.769Z,23.93
2023-02-24T20:57:12.273Z,32.07
2023-02-24T20:59:49.211Z,30.00
2023-02-24T21:02:18.532Z,23.27
2023-02-24T21:04:45.083Z,29.13
2023-02-24T21:07:11.805Z,24.70
2023-02-24T21:09:38.471Z,34.40
2023-02-24T21:12:05.621Z,20.87
2023-02-24T21:14:32.273Z,17.20
2023-02-24T21:16:59.624Z,15.60
2023-02-24T21:19:26.145Z,14.77
2023-02-24T21:21:52.784Z,13.67
2023-02-24T21:24:19.465Z,18.83
2023-02-24T21:26:47.539Z,30.57
2023-02-24T21:29:14.215Z,18.37
2023-02-24T21:31:41.394Z,22.80
2023-02-24T21:34:11.666Z,22.10
2023-02-24T21:36:38.488Z,23.23
2023-02-24T21:39:06.707Z,18.10
2023-02-24T21:41:35.602Z,32.73
2023-02-24T21:44:02.157Z,21.40
2023-02-24T21:46:28.903Z,20.13
2023-02-24T21:48:59.062Z,25.27
2023-02-24T21:51:27.497Z,19.50
2023-02-24T21:53:57.013Z,20.40
2023-02-24T21:56:26.486Z,19.20
2023-02-24T21:59:01.819Z,23.47
2023-02-24T22:01:33.808Z,18.53
2023-02-24T22:04:02.427Z,23.87
2023-02-24T22:06:31.780Z,21.93
2023-02-24T22:08:58.913Z,15.70
2023-02-24T22:11:25.598Z,17.77
2023-02-24T22:13:52.246Z,27.73
2023-02-24T22:16:21.965Z,19.57
2023-02-24T22:18:50.196Z,16.50
2023-02-24T22:21:22.186Z,19.60
2023-02-24T22:23:50.543Z,15.70
2023-02-24T22:26:18.781Z,17.20
2023-02-24T22:28:46.990Z,21.67
2023-02-24T22:31:15.487Z,23.30
2023-02-24T22:33:43.153Z,35.00
2023-02-24T22:36:18.748Z,20.50
2023-02-24T22:38:48.196Z,35.70
2023-02-24T22:41:20.311Z,33.33
2023-02-24T22:43:47.479Z,32.90
2023-02-24T22:46:17.141Z,35.20
2023-02-24T22:48:44.068Z,36.60
2023-02-24T22:51:11.845Z,30.30
2023-02-24T22:53:40.719Z,29.00
2023-02-24T22:56:07.721Z,26.10
2023-02-24T22:58:34.393Z,26.80
2023-02-24T23:01:00.913Z,22.47
2023-02-24T23:03:30.871Z,25.03
2023-02-24T23:06:01.736Z,20.00
2023-02-24T23:08:30.924Z,23.73
2023-02-24T23:11:04.465Z,26.20
2023-02-24T23:13:35.128Z,17.67
2023-02-24T23:16:03.738Z,19.30
2023-02-24T23:18:31.231Z,26.93
2023-02-24T23:21:03.399Z,10.27
2023-02-24T23:23:30.982Z,16.33
2023-02-24T23:25:57.837Z,11.20
2023-02-24T23:28:27.779Z,12.40
2023-02-24T23:30:55.247Z,4.60
2023-02-24T23:33:23.050Z,2.97
2023-02-24T23:35:50.002Z,6.83
2023-02-24T23:38:16.999Z,4.03
2023-02-24T23:40:49.977Z,3.50
2023-02-24T23:43:17.150Z,6.27
2023-02-24T23:45:43.633Z,3.87
2023-02-24T23:48:13.013Z,6.27
2023-02-24T23:50:43.119Z,6.10
2023-02-24T23:53:12.723Z,8.00
2023-02-24T23:55:40.905Z,6.77
2023-02-24T23:58:08.207Z,3.73
